createdAt,value
2019-03-16T00:01:56.560Z,100369.02
2019-03-16T00:04:19.057Z,100366.00
2019-03-16T00:06:50.536Z,100365.67
2019-03-16T00:09:22.073Z,100362.71
2019-03-16T00:11:53.461Z,100373.98
2019-03-16T00:14:44.328Z,100371.67
2019-03-16T00:20:18.352Z,100383.09
2019-03-16T00:22:49.891Z,100383.11
2019-03-16T00:25:21.276Z,100371.50
2019-03-16T00:27:52.813Z,100382.42
2019-03-16T00:30:24.207Z,100390.36
2019-03-16T00:32:55.522Z,100387.89
2019-03-16T00:35:27.110Z,100391.36
2019-03-16T00:37:58.482Z,100390.75
2019-03-16T00:40:30.085Z,100391.73
2019-03-16T00:43:01.704Z,100389.20
2019-03-16T00:45:33.145Z,100385.20
2019-03-16T00:48:04.601Z,100379.41
2019-03-16T00:50:36.224Z,100378.73
2019-03-16T00:53:07.756Z,100385.39
2019-03-16T00:55:39.069Z,100392.16
2019-03-16T00:58:10.751Z,100391.75
2019-03-16T01:00:42.268Z,100392.10
2019-03-16T01:03:13.669Z,100403.54
2019-03-16T01:05:45.062Z,100402.38
2019-03-16T01:08:16.270Z,100397.56
2019-03-16T01:10:48.275Z,100390.29
2019-03-16T01:13:19.748Z,100394.09
2019-03-16T01:15:51.142Z,100402.93
2019-03-16T01:18:22.656Z,100399.91
2019-03-16T01:20:54.153Z,100397.77
2019-03-16T01:23:25.604Z,100398.92
2019-03-16T01:25:57.005Z,100392.27
2019-03-16T01:28:28.579Z,100399.89
2019-03-16T01:31:03.016Z,100400.89
2019-03-16T01:33:34.374Z,100393.41
2019-03-16T01:36:05.583Z,100392.75
2019-03-16T01:38:39.277Z,100400.55
2019-03-16T01:41:10.700Z,100391.58
2019-03-16T01:43:47.438Z,100395.56
2019-03-16T01:46:36.703Z,100394.79
2019-03-16T01:49:09.240Z,100395.92
2019-03-16T01:51:40.714Z,100389.97
2019-03-16T01:54:12.172Z,100392.14
2019-03-16T01:56:43.710Z,100403.70
2019-03-16T01:59:15.152Z,100405.39
2019-03-16T02:01:49.175Z,100402.05
2019-03-16T02:04:19.954Z,100405.38
2019-03-16T02:06:51.481Z,100402.52
2019-03-16T02:09:22.981Z,100399.91
2019-03-16T02:11:54.462Z,100398.56
2019-03-16T02:14:25.835Z,100395.23
2019-03-16T02:16:57.350Z,100394.23
2019-03-16T02:19:28.938Z,100393.91
2019-03-16T02:22:00.297Z,100398.23
2019-03-16T02:24:32.063Z,100396.25
2019-03-16T02:27:03.557Z,100396.72
2019-03-16T02:29:35.160Z,100409.17
2019-03-16T02:32:06.586Z,100407.53
2019-03-16T02:34:38.090Z,100397.91
2019-03-16T02:37:09.386Z,100405.05
2019-03-16T02:39:40.773Z,100404.39
2019-03-16T02:42:12.171Z,100409.20
2019-03-16T02:44:43.557Z,100405.02
2019-03-16T02:47:14.987Z,100395.08
2019-03-16T02:49:46.364Z,100401.23
2019-03-16T02:52:17.715Z,100402.72
2019-03-16T02:54:49.135Z,100400.38
2019-03-16T02:57:20.497Z,100396.55
2019-03-16T02:59:52.039Z,100392.56
2019-03-16T03:02:23.304Z,100379.81
2019-03-16T03:04:55.783Z,100378.50
2019-03-16T03:07:27.373Z,100379.79
2019-03-16T03:09:58.558Z,100370.19
2019-03-16T03:12:51.699Z,100375.14
2019-03-16T03:15:45.068Z,100378.78
2019-03-16T03:18:16.464Z,100384.90
2019-03-16T03:20:47.700Z,100384.53
2019-03-16T03:23:18.983Z,100383.89
2019-03-16T03:25:50.113Z,100386.03
2019-03-16T03:28:21.359Z,100389.84
2019-03-16T03:30:52.574Z,100391.88
2019-03-16T03:33:23.974Z,100377.55
2019-03-16T03:35:55.220Z,100384.70
2019-03-16T03:38:26.368Z,100379.54
2019-03-16T03:41:01.331Z,100384.87
2019-03-16T03:43:30.603Z,100388.41
2019-03-16T03:46:01.792Z,100390.23
2019-03-16T03:48:32.885Z,100380.13
2019-03-16T03:51:04.140Z,100379.61
2019-03-16T03:53:35.357Z,100382.14
2019-03-16T03:56:06.624Z,100385.99
2019-03-16T03:58:38.050Z,100380.56
2019-03-16T04:01:09.282Z,100381.86
2019-03-16T04:03:40.689Z,100382.86
2019-03-16T04:06:12.000Z,100387.14
2019-03-16T04:08:43.104Z,100385.94
2019-03-16T04:11:14.257Z,100388.11
2019-03-16T04:13:45.513Z,100385.78
2019-03-16T04:16:16.745Z,100381.78
2019-03-16T04:18:51.485Z,100382.77
2019-03-16T04:21:20.833Z,100385.52
2019-03-16T04:23:51.979Z,100385.97
2019-03-16T04:26:23.221Z,100391.48
2019-03-16T04:28:54.464Z,100387.69
2019-03-16T04:31:25.677Z,100385.91
2019-03-16T04:33:56.848Z,100385.22
2019-03-16T04:36:28.099Z,100390.75
2019-03-16T04:38:59.341Z,100385.56
2019-03-16T04:41:30.461Z,100389.69
2019-03-16T04:44:01.749Z,100380.52
2019-03-16T04:46:32.932Z,100382.33
2019-03-16T04:49:04.186Z,100374.27
2019-03-16T04:51:35.496Z,100371.14
2019-03-16T04:54:06.640Z,100366.77
2019-03-16T04:56:39.480Z,100384.23
2019-03-16T04:59:10.704Z,100373.97
2019-03-16T05:01:41.967Z,100377.43
2019-03-16T05:04:13.215Z,100370.48
2019-03-16T05:06:44.457Z,100364.73
2019-03-16T05:09:15.695Z,100368.34
2019-03-16T05:11:46.984Z,100371.91
2019-03-16T05:14:18.206Z,100370.80
2019-03-16T05:16:49.334Z,100359.00
2019-03-16T05:19:20.607Z,100365.51
2019-03-16T05:21:51.833Z,100366.36
2019-03-16T05:24:23.083Z,100362.38
2019-03-16T05:26:54.267Z,100358.77
2019-03-16T05:29:25.475Z,100362.13
2019-03-16T05:31:56.690Z,100359.39
2019-03-16T05:34:28.001Z,100357.59
2019-03-16T05:36:59.221Z,100346.95
2019-03-16T05:39:30.465Z,100355.56
2019-03-16T05:42:05.002Z,100346.33
2019-03-16T05:44:34.617Z,100343.23
2019-03-16T05:47:05.805Z,100346.63
2019-03-16T05:49:37.008Z,100340.36
2019-03-16T05:52:07.582Z,100342.23
2019-03-16T05:54:38.848Z,100341.90
2019-03-16T05:57:10.136Z,100341.45
2019-03-16T05:59:41.394Z,100341.20
2019-03-16T06:02:12.654Z,100343.34
2019-03-16T06:04:43.890Z,100339.45
2019-03-16T06:07:15.131Z,100342.29
2019-03-16T06:10:00.377Z,100346.30
2019-03-16T06:12:31.726Z,100343.56
2019-03-16T06:15:03.053Z,100340.70
2019-03-16T06:17:34.339Z,100342.53
2019-03-16T06:20:06.331Z,100343.56
2019-03-16T06:22:37.622Z,100343.28
2019-03-16T06:25:09.038Z,100343.28
2019-03-16T06:27:40.302Z,100347.62
2019-03-16T06:30:11.995Z,100340.19
2019-03-16T06:32:43.309Z,100332.89
2019-03-16T06:35:24.398Z,100328.44
2019-03-16T06:37:47.510Z,100327.80
2019-03-16T06:40:18.820Z,100328.02
2019-03-16T06:42:50.121Z,100333.14
2019-03-16T06:45:21.321Z,100327.08
2019-03-16T06:47:54.790Z,100324.13
2019-03-16T06:50:25.594Z,100324.13
2019-03-16T06:52:56.897Z,100327.77
2019-03-16T06:55:28.186Z,100329.43
2019-03-16T06:57:59.484Z,100326.57
2019-03-16T07:00:30.788Z,100327.30
2019-03-16T07:03:02.076Z,100315.31
2019-03-16T07:05:38.299Z,100322.45
2019-03-16T07:08:06.192Z,100314.19
2019-03-16T07:10:37.417Z,100307.11
2019-03-16T07:13:08.622Z,100311.30
2019-03-16T07:15:39.868Z,100309.50
2019-03-16T07:18:11.134Z,100303.53
2019-03-16T07:20:42.270Z,100295.56
2019-03-16T07:23:13.654Z,100286.44
2019-03-16T07:25:44.914Z,100288.36
2019-03-16T07:28:16.185Z,100277.77
2019-03-16T07:30:47.578Z,100271.41
2019-03-16T07:33:18.914Z,100277.94
2019-03-16T07:35:50.167Z,100269.45
2019-03-16T07:38:21.555Z,100272.28
2019-03-16T07:40:55.453Z,100268.35
2019-03-16T07:43:45.622Z,100267.70
2019-03-16T07:46:16.892Z,100267.86
2019-03-16T07:48:48.178Z,100261.06
2019-03-16T07:51:19.457Z,100256.78
2019-03-16T07:53:50.658Z,100266.39
2019-03-16T07:56:21.838Z,100253.70
2019-03-16T07:58:53.055Z,100261.03
2019-03-16T08:01:24.367Z,100271.34
2019-03-16T08:03:55.570Z,100259.75
2019-03-16T08:06:26.851Z,100249.06
2019-03-16T08:08:58.117Z,100249.73
2019-03-16T08:11:29.352Z,100244.94
2019-03-16T08:14:00.683Z,100256.70
2019-03-16T08:16:31.925Z,100261.22
2019-03-16T08:19:03.058Z,100261.88
2019-03-16T08:21:34.214Z,100269.50
2019-03-16T08:24:05.526Z,100262.70
2019-03-16T08:26:36.787Z,100265.86
2019-03-16T08:29:08.029Z,100258.57
2019-03-16T08:31:39.228Z,100246.78
2019-03-16T08:34:10.547Z,100255.22
2019-03-16T08:36:41.952Z,100249.06
2019-03-16T08:39:13.293Z,100245.91
2019-03-16T08:41:44.646Z,100243.74
2019-03-16T08:44:15.917Z,100242.73
2019-03-16T08:46:47.299Z,100245.55
2019-03-16T08:49:18.643Z,100239.85
2019-03-16T08:51:49.983Z,100240.17
2019-03-16T08:54:21.348Z,100238.31
2019-03-16T08:56:52.713Z,100239.00
2019-03-16T08:59:24.539Z,100242.14
2019-03-16T09:01:55.942Z,100241.18
2019-03-16T09:04:27.210Z,100258.14
2019-03-16T09:06:58.455Z,100242.84
2019-03-16T09:09:33.072Z,100257.78
2019-03-16T09:12:04.414Z,100257.45
2019-03-16T09:14:35.677Z,100253.63
2019-03-16T09:17:09.031Z,100257.94
2019-03-16T09:19:39.781Z,100254.11
2019-03-16T09:22:11.010Z,100241.81
2019-03-16T09:24:42.290Z,100246.80
2019-03-16T09:27:13.528Z,100233.92
2019-03-16T09:29:44.768Z,100237.89
2019-03-16T09:32:15.931Z,100231.86
2019-03-16T09:34:47.130Z,100238.52
2019-03-16T09:37:18.296Z,100237.49
2019-03-16T09:39:49.529Z,100228.03
2019-03-16T09:42:20.819Z,100225.20
2019-03-16T09:44:51.974Z,100225.83
2019-03-16T09:47:23.116Z,100231.31
2019-03-16T09:49:54.364Z,100228.20
2019-03-16T09:52:25.625Z,100218.55
2019-03-16T09:54:56.817Z,100224.04
2019-03-16T09:57:28.067Z,100202.38
2019-03-16T09:59:59.351Z,100215.38
2019-03-16T10:02:30.964Z,100214.64
2019-03-16T10:05:02.123Z,100208.96
2019-03-16T10:07:33.357Z,100204.28
2019-03-16T10:10:05.181Z,100197.88
2019-03-16T10:12:36.511Z,100198.17
2019-03-16T10:15:08.353Z,100188.48
2019-03-16T10:17:39.569Z,100198.20
2019-03-16T10:20:11.169Z,100196.33
2019-03-16T10:22:42.429Z,100193.20
2019-03-16T10:25:13.674Z,100196.50
2019-03-16T10:27:44.925Z,100188.25
2019-03-16T10:30:16.446Z,100191.32
2019-03-16T10:32:51.190Z,100188.28
2019-03-16T10:35:34.599Z,100184.25
2019-03-16T10:38:05.863Z,100191.90
2019-03-16T10:40:37.274Z,100185.97
2019-03-16T10:43:08.547Z,100181.69
2019-03-16T10:45:40.521Z,100189.90
2019-03-16T10:48:12.011Z,100175.53
2019-03-16T10:50:46.633Z,100138.23
2019-03-16T10:53:18.170Z,100174.59
2019-03-16T10:55:49.573Z,100171.93
2019-03-16T10:58:21.815Z,100163.02
2019-03-16T11:00:53.143Z,100165.08
2019-03-16T11:03:24.359Z,100166.69
2019-03-16T11:05:55.623Z,100160.79
2019-03-16T11:08:26.907Z,100170.51
2019-03-16T11:10:58.260Z,100170.51
2019-03-16T11:13:29.554Z,100166.17
2019-03-16T11:16:00.861Z,100162.22
2019-03-16T11:18:32.134Z,100161.42
2019-03-16T11:21:03.368Z,100159.19
2019-03-16T11:23:45.494Z,100151.78
2019-03-16T11:26:23.660Z,100153.84
2019-03-16T11:29:08.962Z,100160.20
2019-03-16T11:31:38.845Z,100161.14
2019-03-16T11:34:11.096Z,100165.23
2019-03-16T11:36:46.407Z,100151.09
2019-03-16T11:39:24.770Z,100158.59
2019-03-16T11:42:04.852Z,100151.47
2019-03-16T11:44:39.302Z,100147.67
2019-03-16T11:47:10.640Z,100142.91
2019-03-16T11:49:41.951Z,100133.76
2019-03-16T11:52:13.205Z,100154.92
2019-03-16T11:54:44.478Z,100141.45
2019-03-16T11:57:15.869Z,100131.15
2019-03-16T11:59:47.100Z,100137.41
2019-03-16T12:02:18.364Z,100145.99
2019-03-16T12:04:49.597Z,100143.14
2019-03-16T12:07:41.289Z,100149.11
2019-03-16T12:10:31.989Z,100139.95
2019-03-16T12:13:03.371Z,100142.74
2019-03-16T12:15:35.644Z,100128.02
2019-03-16T12:18:06.991Z,100142.27
2019-03-16T12:20:38.274Z,100129.42
2019-03-16T12:23:09.797Z,100126.94
2019-03-16T12:25:41.124Z,100137.68
2019-03-16T12:28:13.841Z,100148.14
2019-03-16T12:30:46.455Z,100129.24
2019-03-16T12:33:17.982Z,100128.48
2019-03-16T12:35:50.350Z,100135.46
2019-03-16T12:38:21.712Z,100126.75
2019-03-16T12:40:53.124Z,100114.38
2019-03-16T12:43:24.379Z,100113.20
2019-03-16T12:45:55.690Z,100091.62
2019-03-16T12:48:30.021Z,100112.89
2019-03-16T12:51:03.602Z,100111.06
2019-03-16T12:53:42.357Z,100110.48
2019-03-16T12:56:16.856Z,100113.41
2019-03-16T12:58:48.141Z,100096.84
2019-03-16T13:01:19.523Z,100095.16
2019-03-16T13:03:50.851Z,100099.64
2019-03-16T13:06:28.024Z,100095.89
2019-03-16T13:08:59.397Z,100097.53
2019-03-16T13:11:30.750Z,100094.30
2019-03-16T13:14:02.053Z,100094.61
2019-03-16T13:16:33.346Z,100093.59
2019-03-16T13:19:04.625Z,100086.22
2019-03-16T13:21:35.884Z,100086.31
2019-03-16T13:24:07.260Z,100086.17
2019-03-16T13:26:38.551Z,100091.86
2019-03-16T13:29:11.321Z,100077.20
2019-03-16T13:31:42.567Z,100083.52
2019-03-16T13:34:13.865Z,100076.62
2019-03-16T13:36:45.167Z,100084.98
2019-03-16T13:39:35.422Z,100086.58
2019-03-16T13:42:06.692Z,100079.02
2019-03-16T13:44:40.551Z,100084.00
2019-03-16T13:47:11.818Z,100077.11
2019-03-16T13:49:43.022Z,100076.14
2019-03-16T13:52:14.420Z,100070.44
2019-03-16T13:54:45.774Z,100070.13
2019-03-16T13:57:18.983Z,100062.62
2019-03-16T13:59:50.247Z,100041.93
2019-03-16T14:02:21.477Z,100051.20
2019-03-16T14:04:52.889Z,100051.51
2019-03-16T14:07:24.146Z,100058.80
2019-03-16T14:09:55.451Z,100054.56
2019-03-16T14:12:26.715Z,100043.11
2019-03-16T14:14:58.247Z,100033.66
2019-03-16T14:17:29.540Z,100052.27
2019-03-16T14:20:00.717Z,100042.22
2019-03-16T14:22:32.004Z,100028.70
2019-03-16T14:25:03.142Z,100039.42
2019-03-16T14:27:34.488Z,100023.19
2019-03-16T14:30:06.324Z,100034.00
2019-03-16T14:32:37.608Z,100029.34
2019-03-16T14:35:09.357Z,100016.18
2019-03-16T14:37:40.665Z,100027.20
2019-03-16T14:40:12.726Z,100021.20
2019-03-16T14:42:44.237Z,100022.72
2019-03-16T14:45:16.093Z,100026.80
2019-03-16T14:47:47.465Z,100005.81
2019-03-16T14:50:19.474Z,100017.08
2019-03-16T14:52:50.723Z,100022.85
2019-03-16T14:55:22.052Z,100003.95
2019-03-16T14:57:53.173Z,100017.28
2019-03-16T15:00:37.606Z,100002.52
2019-03-16T15:02:58.503Z,100006.87
2019-03-16T15:05:31.781Z,100006.21
2019-03-16T15:08:03.021Z,99994.66
2019-03-16T15:10:53.248Z,100001.72
2019-03-16T15:13:26.769Z,99983.45
2019-03-16T15:15:57.331Z,99975.56
2019-03-16T15:18:31.142Z,99994.44
2019-03-16T15:21:02.359Z,99989.57
2019-03-16T15:23:33.674Z,99986.48
2019-03-16T15:26:04.841Z,99980.36
2019-03-16T15:28:39.050Z,99986.62
2019-03-16T15:31:10.332Z,99974.12
2019-03-16T15:33:44.846Z,99990.17
2019-03-16T15:36:16.092Z,99967.80
2019-03-16T15:38:47.371Z,99967.25
2019-03-16T15:41:18.671Z,99966.81
2019-03-16T15:43:49.875Z,99964.64
2019-03-16T15:46:21.057Z,99957.72
2019-03-16T15:48:52.278Z,99952.70
2019-03-16T15:51:24.171Z,99945.10
2019-03-16T15:53:55.729Z,99951.69
2019-03-16T15:56:27.812Z,99944.89
2019-03-16T15:58:59.237Z,99941.16
2019-03-16T16:01:30.362Z,99935.75
2019-03-16T16:04:01.618Z,99936.08
2019-03-16T16:06:32.795Z,99933.41
2019-03-16T16:09:04.202Z,99927.50
2019-03-16T16:11:35.401Z,99923.69
2019-03-16T16:14:08.661Z,99928.84
2019-03-16T16:16:39.949Z,99923.63
2019-03-16T16:19:11.104Z,99919.13
2019-03-16T16:21:42.405Z,99916.47
2019-03-16T16:24:13.534Z,99905.41
2019-03-16T16:26:44.852Z,99909.37
2019-03-16T16:29:16.129Z,99906.64
2019-03-16T16:31:47.429Z,99906.11
2019-03-16T16:34:37.575Z,99903.33
2019-03-16T16:37:10.408Z,99901.17
2019-03-16T16:39:41.704Z,99886.38
2019-03-16T16:42:13.005Z,99900.46
2019-03-16T16:44:44.271Z,99889.25
2019-03-16T16:47:15.490Z,99883.13
2019-03-16T16:49:47.064Z,99884.91
2019-03-16T16:52:18.347Z,99890.56
2019-03-16T16:54:49.572Z,99894.69
2019-03-16T16:57:20.787Z,99894.31
2019-03-16T16:59:52.051Z,99888.23
2019-03-16T17:02:23.269Z,99884.02
2019-03-16T17:04:54.519Z,99888.59
2019-03-16T17:07:25.725Z,99887.83
2019-03-16T17:09:56.970Z,99861.88
2019-03-16T17:12:28.221Z,99882.88
2019-03-16T17:14:59.479Z,99882.39
2019-03-16T17:17:35.349Z,99862.41
2019-03-16T17:20:06.286Z,99887.37
2019-03-16T17:22:37.666Z,99881.30
2019-03-16T17:25:09.207Z,99867.91
2019-03-16T17:27:40.477Z,99869.13
2019-03-16T17:30:15.617Z,99872.59
2019-03-16T17:32:46.922Z,99860.92
2019-03-16T17:35:18.331Z,99860.66
2019-03-16T17:37:49.578Z,99865.98
2019-03-16T17:40:20.842Z,99854.08
2019-03-16T17:42:52.090Z,99858.81
2019-03-16T17:45:23.478Z,99861.42
2019-03-16T17:47:54.739Z,99859.16
2019-03-16T17:50:25.919Z,99852.15
2019-03-16T17:52:57.211Z,99859.20
2019-03-16T17:55:28.491Z,99849.56
2019-03-16T17:57:59.911Z,99858.89
2019-03-16T18:00:31.281Z,99849.61
2019-03-16T18:03:02.530Z,99858.44
2019-03-16T18:05:33.945Z,99842.64
2019-03-16T18:08:05.169Z,99850.45
2019-03-16T18:10:36.439Z,99849.43
2019-03-16T18:13:07.759Z,99848.09
2019-03-16T18:15:39.055Z,99847.78
2019-03-16T18:18:12.704Z,99842.83
2019-03-16T18:20:43.979Z,99849.88
2019-03-16T18:26:19.682Z,99842.14
2019-03-16T18:28:51.013Z,99843.72
2019-03-16T18:31:22.280Z,99842.91
2019-03-16T18:33:53.582Z,99843.98
2019-03-16T18:36:24.785Z,99845.55
2019-03-16T18:38:56.027Z,99851.38
2019-03-16T18:41:27.359Z,99835.16
2019-03-16T18:43:58.623Z,99834.27
2019-03-16T18:46:29.854Z,99848.58
2019-03-16T18:49:01.102Z,99849.23
2019-03-16T18:51:32.390Z,99851.14
2019-03-16T18:54:03.673Z,99838.71
2019-03-16T18:56:35.023Z,99844.58
2019-03-16T18:59:09.105Z,99842.81
2019-03-16T19:01:39.215Z,99838.14
2019-03-16T19:04:10.452Z,99830.83
2019-03-16T19:06:41.769Z,99831.88
2019-03-16T19:09:13.011Z,99832.41
2019-03-16T19:11:44.315Z,99821.01
2019-03-16T19:14:17.900Z,99813.44
2019-03-16T19:16:49.185Z,99813.83
2019-03-16T19:19:20.414Z,99800.86
2019-03-16T19:21:51.661Z,99801.48
2019-03-16T19:24:23.109Z,99796.72
2019-03-16T19:26:54.380Z,99797.03
2019-03-16T19:29:25.714Z,99789.00
2019-03-16T19:31:57.103Z,99791.45
2019-03-16T19:34:28.425Z,99785.44
2019-03-16T19:36:59.865Z,99776.55
2019-03-16T19:39:31.510Z,99784.53
2019-03-16T19:42:02.652Z,99776.48
2019-03-16T19:44:33.878Z,99766.02
2019-03-16T19:47:05.186Z,99770.48
2019-03-16T19:49:36.822Z,99769.84
2019-03-16T19:52:08.194Z,99769.41
2019-03-16T19:54:39.888Z,99765.41
2019-03-16T19:57:16.226Z,99759.13
2019-03-16T19:59:44.115Z,99755.49
2019-03-16T20:02:15.435Z,99760.77
2019-03-16T20:04:46.662Z,99753.48
2019-03-16T20:07:19.467Z,99743.77
2019-03-16T20:09:50.897Z,99750.77
2019-03-16T20:12:22.231Z,99733.33
2019-03-16T20:15:01.176Z,99740.72
2019-03-16T20:17:32.342Z,99730.14
2019-03-16T20:20:03.523Z,99730.32
2019-03-16T20:22:34.963Z,99715.12
2019-03-16T20:25:06.268Z,99721.78
2019-03-16T20:27:37.666Z,99719.48
2019-03-16T20:30:09.629Z,99712.58
2019-03-16T20:32:40.914Z,99702.30
2019-03-16T20:35:12.378Z,99696.97
2019-03-16T20:37:43.604Z,99702.58
2019-03-16T20:40:14.877Z,99690.19
2019-03-16T20:42:46.277Z,99695.64
2019-03-16T20:45:17.801Z,99689.16
2019-03-16T20:47:50.282Z,99689.76
2019-03-16T20:50:21.783Z,99695.58
2019-03-16T20:52:52.942Z,99683.88
2019-03-16T20:55:24.217Z,99682.91
2019-03-16T20:57:55.439Z,99679.72
2019-03-16T21:00:26.929Z,99683.09
2019-03-16T21:02:58.068Z,99671.83
2019-03-16T21:05:29.381Z,99658.52
2019-03-16T21:08:00.674Z,99664.77
2019-03-16T21:10:32.037Z,99661.36
2019-03-16T21:13:03.377Z,99648.91
2019-03-16T21:15:34.683Z,99653.38
2019-03-16T21:18:06.124Z,99664.15
2019-03-16T21:20:37.427Z,99656.22
2019-03-16T21:23:08.945Z,99652.88
2019-03-16T21:25:40.479Z,99644.12
2019-03-16T21:28:12.205Z,99639.09
2019-03-16T21:30:43.483Z,99636.44
2019-03-16T21:33:14.825Z,99637.64
2019-03-16T21:35:46.035Z,99637.89
2019-03-16T21:38:19.821Z,99631.23
2019-03-16T21:40:51.085Z,99635.51
2019-03-16T21:43:22.437Z,99638.60
2019-03-16T21:45:53.730Z,99628.20
2019-03-16T21:48:24.991Z,99613.25
2019-03-16T21:50:56.327Z,99628.02
2019-03-16T21:53:27.698Z,99622.38
2019-03-16T21:56:00.062Z,99612.82
2019-03-16T21:58:31.349Z,99616.59
2019-03-16T22:01:02.697Z,99610.96
2019-03-16T22:03:42.149Z,99614.27
2019-03-16T22:06:07.566Z,99596.90
2019-03-16T22:08:38.982Z,99595.83
2019-03-16T22:11:10.228Z,99598.86
2019-03-16T22:13:41.509Z,99593.66
2019-03-16T22:16:13.968Z,99591.23
2019-03-16T22:18:45.235Z,99590.06
2019-03-16T22:21:16.443Z,99584.64
2019-03-16T22:23:47.914Z,99585.98
2019-03-16T22:26:19.278Z,99586.88
2019-03-16T22:28:53.382Z,99578.95
2019-03-16T22:31:24.743Z,99578.88
2019-03-16T22:33:55.891Z,99579.00
2019-03-16T22:36:28.393Z,99580.14
2019-03-16T22:38:59.687Z,99575.50
2019-03-16T22:41:32.460Z,99575.96
2019-03-16T22:44:04.064Z,99566.41
2019-03-16T22:46:35.374Z,99560.00
2019-03-16T22:49:08.229Z,99559.98
2019-03-16T22:51:40.191Z,99548.61
2019-03-16T22:54:12.708Z,99551.87
2019-03-16T22:56:44.571Z,99541.00
2019-03-16T22:59:15.857Z,99547.78
2019-03-16T23:01:48.955Z,99537.34
2019-03-16T23:04:22.236Z,99536.02
2019-03-16T23:06:53.693Z,99530.47
2019-03-16T23:09:25.082Z,99528.33
2019-03-16T23:11:56.450Z,99517.98
2019-03-16T23:14:28.117Z,99515.81
2019-03-16T23:16:59.600Z,99509.95
2019-03-16T23:19:30.778Z,99506.75
2019-03-16T23:22:02.003Z,99503.71
2019-03-16T23:24:33.350Z,99510.67
2019-03-16T23:27:04.547Z,99491.44
2019-03-16T23:29:38.674Z,99488.96
2019-03-16T23:32:09.881Z,99495.42
2019-03-16T23:34:41.164Z,99485.50
2019-03-16T23:37:12.415Z,99491.24
2019-03-16T23:39:43.675Z,99481.20
2019-03-16T23:42:14.987Z,99488.39
2019-03-16T23:44:48.997Z,99473.86
2019-03-16T23:47:20.380Z,99476.11
2019-03-16T23:49:51.702Z,99476.94
2019-03-16T23:52:25.826Z,99464.35
2019-03-16T23:55:16.245Z,99466.02
2019-03-16T23:57:47.508Z,99455.59
